createdAt,value
2023-03-17T00:00:46.757Z,1.67
2023-03-17T00:03:27.059Z,1.90
2023-03-17T00:05:55.869Z,1.80
2023-03-17T00:08:29.238Z,1.30
2023-03-17T00:10:56.594Z,1.55
2023-03-17T00:13:23.956Z,2.05
2023-03-17T00:15:56.946Z,2.15
2023-03-17T00:18:24.776Z,1.40
2023-03-17T00:20:53.083Z,1.55
2023-03-17T00:23:25.375Z,2.00
2023-03-17T00:28:24.633Z,1.75
2023-03-17T00:30:56.454Z,1.20
2023-03-17T00:33:27.906Z,2.08
2023-03-17T00:35:57.154Z,1.77
2023-03-17T00:38:25.622Z,1.88
2023-03-17T00:40:53.008Z,1.80
2023-03-17T00:43:22.684Z,1.80
2023-03-17T00:45:51.081Z,1.95
2023-03-17T00:48:21.068Z,2.17
2023-03-17T00:50:50.067Z,1.52
2023-03-17T00:53:23.187Z,1.80
2023-03-17T00:55:50.270Z,1.80
2023-03-17T00:58:34.411Z,2.10
2023-03-17T01:01:02.288Z,1.80
2023-03-17T01:03:29.609Z,1.50
2023-03-17T01:05:57.971Z,1.73
2023-03-17T01:08:25.738Z,1.90
2023-03-17T01:10:54.671Z,1.58
2023-03-17T01:13:22.232Z,1.30
2023-03-17T01:15:52.013Z,1.88
2023-03-17T01:18:22.794Z,1.83
2023-03-17T01:20:51.944Z,1.58
2023-03-17T01:23:19.236Z,1.83
2023-03-17T01:25:46.303Z,1.60
2023-03-17T01:28:19.014Z,1.70
2023-03-17T01:30:46.991Z,1.67
2023-03-17T01:33:14.876Z,1.80
2023-03-17T01:35:43.778Z,1.60
2023-03-17T01:38:11.855Z,1.63
2023-03-17T01:40:46.811Z,1.60
2023-03-17T01:43:17.432Z,1.80
2023-03-17T01:46:30.932Z,1.77
2023-03-17T01:49:21.797Z,2.33
2023-03-17T01:52:10.263Z,2.08
2023-03-17T01:55:08.066Z,2.00
2023-03-17T01:57:40.069Z,1.27
2023-03-17T02:00:16.330Z,1.23
2023-03-17T02:02:48.936Z,2.10
2023-03-17T02:05:21.537Z,1.50
2023-03-17T02:07:49.261Z,1.65
2023-03-17T02:10:20.610Z,1.25
2023-03-17T02:12:54.085Z,1.60
2023-03-17T02:15:22.112Z,1.25
2023-03-17T02:17:50.429Z,1.60
2023-03-17T02:20:17.686Z,1.85
2023-03-17T02:22:49.532Z,1.80
2023-03-17T02:25:19.808Z,1.33
2023-03-17T02:27:51.360Z,2.00
2023-03-17T02:30:23.516Z,1.95
2023-03-17T02:32:51.059Z,1.45
2023-03-17T02:35:19.558Z,1.30
2023-03-17T02:37:47.206Z,1.50
2023-03-17T02:40:16.576Z,1.30
2023-03-17T02:42:44.136Z,1.58
2023-03-17T02:45:12.992Z,1.55
2023-03-17T02:47:41.449Z,2.00
2023-03-17T02:50:12.160Z,1.45
2023-03-17T02:52:39.115Z,2.20
2023-03-17T02:55:08.287Z,1.25
2023-03-17T02:57:38.381Z,1.40
2023-03-17T03:00:06.007Z,1.27
2023-03-17T03:02:33.621Z,1.45
2023-03-17T03:05:01.025Z,1.67
2023-03-17T03:07:28.419Z,1.80
2023-03-17T03:09:55.973Z,1.60
2023-03-17T03:12:23.376Z,1.95
2023-03-17T03:14:50.448Z,2.10
2023-03-17T03:17:18.190Z,1.58
2023-03-17T03:19:45.581Z,1.20
2023-03-17T03:22:12.908Z,1.48
2023-03-17T03:24:39.843Z,1.88
2023-03-17T03:27:07.145Z,2.55
2023-03-17T03:29:34.430Z,1.17
2023-03-17T03:32:02.106Z,1.23
2023-03-17T03:34:29.608Z,1.52
2023-03-17T03:36:57.041Z,1.48
2023-03-17T03:39:24.106Z,1.13
2023-03-17T03:41:51.125Z,2.78
2023-03-17T03:44:18.752Z,1.85
2023-03-17T03:46:45.803Z,1.58
2023-03-17T03:49:13.191Z,1.42
2023-03-17T03:51:40.579Z,1.42
2023-03-17T03:54:07.640Z,1.63
2023-03-17T03:56:35.327Z,1.50
2023-03-17T03:59:03.041Z,1.80
2023-03-17T04:01:30.059Z,1.25
2023-03-17T04:03:57.386Z,1.98
2023-03-17T04:06:24.330Z,1.27
2023-03-17T04:08:51.656Z,1.40
2023-03-17T04:11:18.647Z,1.40
2023-03-17T04:13:46.256Z,1.00
2023-03-17T04:16:13.666Z,1.20
2023-03-17T04:18:41.359Z,0.98
2023-03-17T04:21:08.742Z,1.40
2023-03-17T04:23:36.292Z,1.67
2023-03-17T04:26:04.166Z,1.58
2023-03-17T04:28:31.400Z,1.30
2023-03-17T04:30:58.350Z,1.52
2023-03-17T04:33:26.761Z,1.40
2023-03-17T04:35:54.121Z,1.20
2023-03-17T04:38:21.775Z,1.15
2023-03-17T04:40:50.971Z,1.08
2023-03-17T04:43:18.349Z,1.25
2023-03-17T04:45:45.312Z,1.77
2023-03-17T04:48:12.335Z,1.45
2023-03-17T04:50:39.736Z,1.25
2023-03-17T04:53:06.809Z,1.23
2023-03-17T04:55:34.203Z,1.58
2023-03-17T04:58:01.356Z,1.40
2023-03-17T05:00:28.930Z,0.93
2023-03-17T05:02:56.464Z,1.38
2023-03-17T05:05:23.575Z,1.67
2023-03-17T05:07:50.803Z,1.58
2023-03-17T05:10:18.283Z,1.77
2023-03-17T05:12:45.414Z,1.90
2023-03-17T05:15:12.880Z,1.95
2023-03-17T05:17:41.308Z,1.50
2023-03-17T05:20:09.647Z,1.45
2023-03-17T05:22:37.251Z,1.30
2023-03-17T05:25:06.720Z,2.13
2023-03-17T05:27:33.802Z,1.60
2023-03-17T05:30:00.929Z,1.50
2023-03-17T05:32:27.937Z,1.63
2023-03-17T05:34:55.305Z,1.63
2023-03-17T05:37:22.661Z,1.60
2023-03-17T05:39:49.989Z,1.63
2023-03-17T05:42:17.405Z,9.40
2023-03-17T05:44:44.517Z,4.95
2023-03-17T05:47:11.991Z,3.63
2023-03-17T05:49:39.359Z,1.65
2023-03-17T05:52:06.747Z,2.33
2023-03-17T05:54:33.736Z,5.78
2023-03-17T05:57:01.219Z,5.75
2023-03-17T05:59:29.119Z,3.80
2023-03-17T06:01:57.165Z,4.32
2023-03-17T06:04:24.624Z,3.63
2023-03-17T06:06:51.782Z,3.33
2023-03-17T06:09:19.285Z,2.55
2023-03-17T06:11:46.688Z,2.75
2023-03-17T06:14:14.719Z,2.67
2023-03-17T06:16:42.166Z,2.00
2023-03-17T06:19:09.128Z,2.35
2023-03-17T06:21:36.941Z,2.10
2023-03-17T06:24:04.658Z,2.20
2023-03-17T06:26:32.028Z,2.00
2023-03-17T06:28:59.320Z,2.15
2023-03-17T06:31:27.918Z,2.47
2023-03-17T06:33:55.598Z,2.22
2023-03-17T06:36:23.287Z,2.45
2023-03-17T06:38:50.897Z,2.35
2023-03-17T06:41:18.982Z,2.10
2023-03-17T06:43:46.592Z,1.73
2023-03-17T06:46:14.209Z,1.90
2023-03-17T06:48:41.206Z,1.75
2023-03-17T06:51:08.654Z,2.17
2023-03-17T06:53:36.246Z,2.08
2023-03-17T06:56:05.086Z,1.60
2023-03-17T06:58:33.146Z,2.33
2023-03-17T07:01:00.382Z,2.63
2023-03-17T07:03:28.007Z,2.13
2023-03-17T07:05:55.388Z,2.25
2023-03-17T07:08:22.748Z,2.30
2023-03-17T07:10:50.103Z,2.33
2023-03-17T07:13:17.079Z,2.67
2023-03-17T07:15:45.483Z,2.50
2023-03-17T07:18:13.451Z,2.53
2023-03-17T07:20:41.168Z,2.08
2023-03-17T07:23:15.628Z,3.45
2023-03-17T07:25:46.033Z,2.50
2023-03-17T07:28:16.300Z,2.65
2023-03-17T07:30:46.832Z,2.25
2023-03-17T07:33:14.634Z,2.97
2023-03-17T07:35:42.475Z,2.45
2023-03-17T07:38:10.194Z,2.50
2023-03-17T07:40:37.778Z,3.78
2023-03-17T07:43:05.497Z,3.55
2023-03-17T07:45:33.476Z,3.50
2023-03-17T07:48:01.257Z,3.75
2023-03-17T07:50:28.794Z,2.67
2023-03-17T07:52:56.673Z,3.72
2023-03-17T07:55:24.176Z,2.67
2023-03-17T07:57:51.651Z,3.13
2023-03-17T08:00:21.759Z,3.20
2023-03-17T08:03:03.192Z,3.50
2023-03-17T08:05:35.937Z,3.70
2023-03-17T08:08:05.035Z,3.80
2023-03-17T08:10:32.655Z,3.40
2023-03-17T08:13:00.226Z,2.92
2023-03-17T08:15:27.267Z,3.30
2023-03-17T08:17:54.203Z,3.00
2023-03-17T08:20:21.824Z,2.70
2023-03-17T08:22:48.856Z,3.22
2023-03-17T08:25:16.364Z,2.85
2023-03-17T08:27:43.404Z,2.35
2023-03-17T08:30:12.590Z,1.95
2023-03-17T08:32:39.595Z,2.05
2023-03-17T08:35:06.931Z,1.77
2023-03-17T08:37:34.335Z,2.55
2023-03-17T08:40:01.498Z,2.58
2023-03-17T08:42:28.519Z,2.67
2023-03-17T08:44:55.723Z,2.08
2023-03-17T08:47:23.601Z,2.72
2023-03-17T08:49:50.977Z,2.13
2023-03-17T08:52:18.340Z,2.55
2023-03-17T08:54:47.035Z,2.40
2023-03-17T08:57:15.689Z,2.13
2023-03-17T08:59:42.774Z,2.05
2023-03-17T09:02:11.983Z,1.92
2023-03-17T09:04:40.313Z,2.13
2023-03-17T09:07:09.695Z,2.75
2023-03-17T09:09:37.646Z,2.10
2023-03-17T09:12:06.598Z,1.88
2023-03-17T09:14:42.821Z,1.70
2023-03-17T09:17:11.319Z,1.95
2023-03-17T09:19:38.894Z,1.75
2023-03-17T09:22:06.792Z,1.80
2023-03-17T09:24:34.200Z,1.17
2023-03-17T09:27:01.573Z,1.55
2023-03-17T09:29:28.573Z,1.92
2023-03-17T09:31:56.989Z,1.40
2023-03-17T09:34:25.576Z,1.55
2023-03-17T09:36:54.603Z,1.67
2023-03-17T09:39:24.177Z,1.00
2023-03-17T09:42:01.900Z,1.75
2023-03-17T09:44:32.259Z,1.58
2023-03-17T09:47:08.465Z,1.17
2023-03-17T09:49:47.504Z,1.63
2023-03-17T09:52:25.995Z,1.30
2023-03-17T09:54:53.615Z,1.73
2023-03-17T09:57:39.619Z,1.63
2023-03-17T10:00:16.896Z,1.27
2023-03-17T10:02:45.419Z,1.63
2023-03-17T10:05:26.261Z,1.13
2023-03-17T10:08:06.314Z,1.48
2023-03-17T10:11:13.368Z,1.27
2023-03-17T10:13:52.214Z,0.90
2023-03-17T10:16:42.783Z,1.38
2023-03-17T10:19:41.572Z,0.70
2023-03-17T10:22:25.277Z,0.50
2023-03-17T10:24:58.006Z,0.93
2023-03-17T10:27:26.274Z,0.73
2023-03-17T10:29:53.654Z,0.73
2023-03-17T10:32:20.830Z,0.40
2023-03-17T10:34:48.799Z,0.85
2023-03-17T10:37:23.379Z,0.57
2023-03-17T10:39:59.718Z,0.52
2023-03-17T10:42:29.806Z,0.80
2023-03-17T10:45:07.502Z,0.60
2023-03-17T10:47:39.871Z,0.80
2023-03-17T10:50:54.385Z,0.25
2023-03-17T10:53:30.585Z,0.60
2023-03-17T10:56:07.437Z,0.70
2023-03-17T10:58:44.530Z,0.50
2023-03-17T11:01:34.678Z,0.77
2023-03-17T11:04:06.357Z,0.40
2023-03-17T11:06:42.794Z,0.52
2023-03-17T11:09:16.704Z,0.70
2023-03-17T11:11:50.030Z,0.73
2023-03-17T11:14:20.406Z,0.50
2023-03-17T11:16:54.877Z,0.43
2023-03-17T11:19:34.316Z,0.77
2023-03-17T11:22:20.760Z,0.60
2023-03-17T11:25:27.144Z,0.40
2023-03-17T11:28:20.381Z,0.30
2023-03-17T11:31:19.859Z,0.50
2023-03-17T11:34:35.122Z,0.60
2023-03-17T11:37:26.324Z,0.50
2023-03-17T11:40:19.777Z,0.68
2023-03-17T11:43:11.443Z,0.70
2023-03-17T11:46:17.115Z,0.40
2023-03-17T11:49:00.900Z,0.80
2023-03-17T11:51:37.454Z,0.65
2023-03-17T11:54:36.070Z,1.00
2023-03-17T11:57:20.668Z,1.00
2023-03-17T11:59:58.945Z,0.60
2023-03-17T12:02:37.528Z,0.68
2023-03-17T12:05:17.087Z,0.82
2023-03-17T12:07:53.170Z,0.57
2023-03-17T12:10:42.264Z,0.80
2023-03-17T12:13:20.436Z,0.90
2023-03-17T12:15:53.121Z,0.57
2023-03-17T12:18:37.653Z,0.95
2023-03-17T12:21:15.335Z,0.60
2023-03-17T12:23:52.351Z,0.70
2023-03-17T12:26:32.893Z,0.68
2023-03-17T12:29:17.103Z,0.68
2023-03-17T12:32:29.432Z,0.90
2023-03-17T12:37:28.549Z,0.70
2023-03-17T12:40:06.921Z,0.80
2023-03-17T12:43:21.898Z,0.40
2023-03-17T12:46:04.614Z,0.70
2023-03-17T12:48:49.676Z,0.70
2023-03-17T12:52:02.619Z,0.80
2023-03-17T12:54:34.232Z,1.20
2023-03-17T12:57:18.539Z,0.60
2023-03-17T12:59:49.744Z,0.50
2023-03-17T13:02:28.881Z,0.50
2023-03-17T13:05:01.804Z,0.77
2023-03-17T13:07:40.403Z,0.80
2023-03-17T13:10:40.113Z,0.57
2023-03-17T13:13:21.729Z,0.88
2023-03-17T13:15:58.004Z,0.40
2023-03-17T13:18:47.165Z,0.40
2023-03-17T13:21:17.478Z,0.68
2023-03-17T13:24:13.679Z,0.77
2023-03-17T13:26:56.383Z,0.40
2023-03-17T13:29:32.908Z,0.70
2023-03-17T13:32:27.781Z,0.70
2023-03-17T13:35:17.585Z,0.93
2023-03-17T13:38:03.715Z,0.60
2023-03-17T13:40:55.763Z,1.00
2023-03-17T13:45:50.356Z,0.88
2023-03-17T13:48:47.534Z,1.10
2023-03-17T13:51:33.851Z,0.70
2023-03-17T13:54:33.975Z,0.80
2023-03-17T13:57:28.785Z,0.70
2023-03-17T14:00:31.661Z,0.70
2023-03-17T14:03:25.579Z,0.50
2023-03-17T14:05:55.696Z,0.57
2023-03-17T14:08:47.431Z,0.82
2023-03-17T14:11:31.547Z,0.77
2023-03-17T14:14:31.568Z,0.95
2023-03-17T14:17:29.275Z,0.70
2023-03-17T14:20:12.938Z,0.60
2023-03-17T14:22:45.872Z,0.60
2023-03-17T14:25:26.161Z,0.55
2023-03-17T14:27:57.093Z,0.57
2023-03-17T14:30:29.625Z,0.60
2023-03-17T14:33:26.664Z,0.60
2023-03-17T14:35:59.192Z,0.60
2023-03-17T14:38:50.030Z,0.70
2023-03-17T14:41:24.066Z,0.93
2023-03-17T14:43:54.418Z,0.60
2023-03-17T14:46:37.439Z,0.90
2023-03-17T14:49:20.383Z,0.40
2023-03-17T14:51:57.385Z,0.40
2023-03-17T14:54:31.348Z,0.82
2023-03-17T14:57:06.956Z,0.40
2023-03-17T14:59:40.544Z,0.55
2023-03-17T15:02:24.696Z,0.68
2023-03-17T15:04:57.124Z,0.70
2023-03-17T15:07:36.814Z,0.40
2023-03-17T15:10:07.336Z,0.80
2023-03-17T15:12:34.370Z,0.60
2023-03-17T15:15:12.581Z,0.70
2023-03-17T15:17:39.663Z,0.40
2023-03-17T15:20:14.620Z,0.50
2023-03-17T15:22:45.914Z,0.63
2023-03-17T15:25:44.978Z,0.82
2023-03-17T15:28:14.897Z,0.43
2023-03-17T15:30:48.525Z,1.50
2023-03-17T15:33:39.614Z,0.85
2023-03-17T15:36:07.708Z,0.60
2023-03-17T15:38:37.003Z,0.47
2023-03-17T15:41:04.604Z,0.63
2023-03-17T15:43:32.002Z,0.45
2023-03-17T15:46:04.401Z,0.60
2023-03-17T15:48:36.213Z,0.77
2023-03-17T15:53:32.315Z,1.58
2023-03-17T15:55:59.773Z,3.70
2023-03-17T15:58:27.065Z,3.95
2023-03-17T16:00:57.313Z,2.05
2023-03-17T16:03:41.219Z,1.75
2023-03-17T16:06:20.898Z,1.70
2023-03-17T16:08:49.112Z,1.15
2023-03-17T16:11:19.999Z,0.85
2023-03-17T16:13:47.828Z,0.60
2023-03-17T16:16:35.800Z,0.55
2023-03-17T16:19:10.287Z,0.60
2023-03-17T16:21:37.467Z,0.52
2023-03-17T16:24:04.979Z,0.40
2023-03-17T16:26:31.989Z,0.65
2023-03-17T16:28:58.985Z,0.60
2023-03-17T16:31:31.167Z,0.55
2023-03-17T16:33:58.690Z,0.40
2023-03-17T16:36:26.346Z,1.02
2023-03-17T16:38:53.685Z,0.98
2023-03-17T16:41:23.786Z,0.50
2023-03-17T16:43:59.748Z,0.68
2023-03-17T16:46:28.373Z,1.30
2023-03-17T16:48:56.130Z,0.90
2023-03-17T16:51:25.489Z,0.90
2023-03-17T16:53:52.464Z,0.80
2023-03-17T16:56:22.386Z,0.90
2023-03-17T16:58:49.697Z,1.05
2023-03-17T17:01:26.395Z,0.65
2023-03-17T17:03:54.174Z,1.48
2023-03-17T17:06:23.079Z,1.02
2023-03-17T17:08:51.538Z,1.00
2023-03-17T17:11:19.935Z,1.38
2023-03-17T17:13:48.774Z,1.50
2023-03-17T17:16:29.552Z,1.20
2023-03-17T17:18:58.387Z,1.10
2023-03-17T17:21:26.561Z,1.00
2023-03-17T17:23:54.124Z,1.10
2023-03-17T17:26:22.323Z,1.13
2023-03-17T17:28:49.675Z,1.17
2023-03-17T17:31:16.980Z,1.60
2023-03-17T17:33:44.020Z,0.85
2023-03-17T17:36:16.838Z,1.30
2023-03-17T17:38:44.720Z,1.23
2023-03-17T17:41:13.046Z,1.20
2023-03-17T17:43:41.098Z,1.35
2023-03-17T17:46:16.751Z,1.33
2023-03-17T17:48:43.994Z,1.80
2023-03-17T17:51:11.599Z,1.25
2023-03-17T17:53:38.574Z,1.55
2023-03-17T17:56:06.580Z,1.15
2023-03-17T17:58:33.605Z,1.52
2023-03-17T18:01:00.989Z,1.67
2023-03-17T18:03:28.380Z,2.42
2023-03-17T18:05:57.736Z,1.58
2023-03-17T18:08:25.963Z,1.35
2023-03-17T18:10:53.126Z,1.23
2023-03-17T18:13:20.077Z,1.70
2023-03-17T18:15:47.176Z,1.60
2023-03-17T18:18:14.410Z,1.60
2023-03-17T18:20:41.436Z,1.63
2023-03-17T18:23:10.888Z,1.75
2023-03-17T18:25:38.215Z,1.40
2023-03-17T18:28:05.346Z,1.20
2023-03-17T18:30:35.000Z,1.58
2023-03-17T18:33:17.353Z,1.25
2023-03-17T18:35:48.048Z,1.55
2023-03-17T18:38:15.228Z,2.55
2023-03-17T18:40:43.109Z,1.48
2023-03-17T18:43:10.147Z,1.27
2023-03-17T18:45:37.952Z,1.52
2023-03-17T18:48:05.062Z,1.63
2023-03-17T18:50:33.072Z,1.20
2023-03-17T18:53:00.947Z,1.25
2023-03-17T18:55:28.004Z,1.10
2023-03-17T18:57:55.115Z,1.33
2023-03-17T19:00:25.126Z,1.63
2023-03-17T19:02:52.886Z,2.15
2023-03-17T19:05:20.298Z,2.97
2023-03-17T19:07:47.483Z,2.40
2023-03-17T19:10:15.060Z,2.50
2023-03-17T19:12:42.710Z,2.97
2023-03-17T19:15:10.683Z,2.78
2023-03-17T19:17:38.444Z,3.85
2023-03-17T19:20:07.288Z,1.95
2023-03-17T19:22:34.874Z,1.92
2023-03-17T19:25:04.429Z,1.95
2023-03-17T19:27:31.888Z,1.65
2023-03-17T19:29:58.883Z,1.77
2023-03-17T19:32:26.022Z,1.90
2023-03-17T19:34:53.587Z,2.00
2023-03-17T19:37:21.045Z,2.03
2023-03-17T19:39:48.318Z,1.45
2023-03-17T19:42:16.177Z,1.10
2023-03-17T19:44:43.861Z,1.65
2023-03-17T19:47:11.463Z,1.88
2023-03-17T19:49:39.242Z,1.50
2023-03-17T19:52:07.762Z,1.42
2023-03-17T19:54:38.490Z,1.65
2023-03-17T19:57:05.691Z,1.50
2023-03-17T19:59:32.812Z,1.35
2023-03-17T20:02:00.082Z,1.88
2023-03-17T20:04:27.177Z,1.05
2023-03-17T20:06:55.858Z,1.67
2023-03-17T20:09:27.745Z,1.67
2023-03-17T20:11:56.513Z,1.23
2023-03-17T20:14:24.579Z,1.73
2023-03-17T20:16:53.513Z,1.27
2023-03-17T20:19:21.006Z,1.45
2023-03-17T20:21:48.106Z,1.60
2023-03-17T20:24:15.317Z,2.15
2023-03-17T20:26:44.645Z,1.85
2023-03-17T20:29:16.184Z,1.20
2023-03-17T20:31:43.852Z,2.33
2023-03-17T20:34:11.825Z,3.67
2023-03-17T20:36:42.408Z,3.45
2023-03-17T20:39:14.796Z,3.28
2023-03-17T20:41:42.192Z,2.90
2023-03-17T20:44:09.781Z,2.97
2023-03-17T20:46:36.870Z,3.47
2023-03-17T20:49:05.616Z,3.70
2023-03-17T20:51:33.949Z,4.20
2023-03-17T20:54:02.307Z,2.65
2023-03-17T20:56:30.737Z,2.05
2023-03-17T20:58:58.647Z,1.65
2023-03-17T21:01:26.675Z,1.60
2023-03-17T21:03:53.856Z,2.58
2023-03-17T21:06:21.221Z,2.90
2023-03-17T21:08:48.541Z,2.55
2023-03-17T21:11:19.100Z,1.50
2023-03-17T21:13:47.141Z,2.20
2023-03-17T21:16:22.526Z,1.48
2023-03-17T21:18:49.837Z,2.00
2023-03-17T21:21:18.134Z,2.15
2023-03-17T21:23:45.339Z,2.03
2023-03-17T21:26:14.212Z,2.05
2023-03-17T21:28:42.478Z,1.85
2023-03-17T21:31:12.102Z,1.70
2023-03-17T21:33:39.832Z,1.60
2023-03-17T21:36:07.583Z,1.88
2023-03-17T21:38:35.700Z,1.20
2023-03-17T21:41:39.539Z,1.25
2023-03-17T21:44:08.256Z,1.27
2023-03-17T21:46:35.634Z,1.67
2023-03-17T21:49:02.697Z,1.67
2023-03-17T21:51:30.357Z,2.10
2023-03-17T21:53:57.941Z,1.83
2023-03-17T21:56:25.805Z,2.25
2023-03-17T21:58:52.880Z,1.77
2023-03-17T22:01:23.537Z,3.17
2023-03-17T22:03:52.237Z,4.80
2023-03-17T22:06:20.465Z,8.55
2023-03-17T22:08:48.767Z,7.13
2023-03-17T22:11:18.740Z,5.63
2023-03-17T22:13:46.615Z,4.88
2023-03-17T22:16:15.267Z,2.95
2023-03-17T22:18:43.088Z,2.72
2023-03-17T22:21:10.770Z,2.92
2023-03-17T22:23:42.281Z,2.60
2023-03-17T22:26:16.755Z,3.30
2023-03-17T22:28:45.492Z,2.85
2023-03-17T22:31:19.905Z,3.45
2023-03-17T22:33:48.820Z,2.85
2023-03-17T22:36:16.474Z,3.40
2023-03-17T22:38:44.468Z,2.67
2023-03-17T22:41:19.597Z,3.17
2023-03-17T22:43:47.160Z,3.55
2023-03-17T22:46:15.421Z,2.58
2023-03-17T22:48:42.956Z,2.75
2023-03-17T22:51:21.471Z,2.65
2023-03-17T22:53:50.745Z,2.75
2023-03-17T22:56:18.816Z,1.95
2023-03-17T22:58:47.059Z,2.65
2023-03-17T23:01:16.457Z,1.77
2023-03-17T23:03:44.099Z,2.63
2023-03-17T23:06:13.087Z,2.10
2023-03-17T23:08:43.029Z,1.60
2023-03-17T23:11:14.585Z,1.88
2023-03-17T23:13:41.883Z,2.20
2023-03-17T23:16:10.060Z,2.08
2023-03-17T23:18:37.524Z,1.95
2023-03-17T23:21:06.635Z,2.72
2023-03-17T23:23:35.742Z,1.90
2023-03-17T23:26:03.043Z,2.40
2023-03-17T23:28:30.062Z,2.15
2023-03-17T23:30:57.458Z,1.73
2023-03-17T23:33:25.603Z,1.65
2023-03-17T23:35:53.520Z,1.30
2023-03-17T23:38:21.507Z,2.10
2023-03-17T23:40:49.952Z,2.13
2023-03-17T23:43:17.000Z,2.42
2023-03-17T23:45:45.431Z,1.67
2023-03-17T23:48:12.735Z,1.65
2023-03-17T23:50:41.449Z,1.90
2023-03-17T23:53:09.909Z,1.77
2023-03-17T23:55:37.160Z,1.77
2023-03-17T23:58:04.943Z,1.98
